Time;durP1;ratioP1;P1;durP2;ratioP2;P2;SDS_P1;SDS_P2;PMS_P1;PMS_P2;Temp;Humidity;BMP_temperature;BMP_pressure;BME280_temperature;BME280_humidity;BME280_pressure;Samples;Min_cycle;Max_cycle;Signal;HPM_P1;HPM_P2
2021/09/19 00:00:14;;;;;;;;;;;;;;;19.40;52.36;100408.72;5156712;27;747;-49
2021/09/19 00:02:39;;;;;;;;;;;;;;;19.83;54.11;100407.72;5157980;27;1909;-47
2021/09/19 00:05:05;;;;;;;;;;;;;;;20.03;55.66;100403.75;5157738;27;786;-57
2021/09/19 00:07:31;;;;;;;;;;;;;;;20.32;56.73;100397.09;5157104;27;1016;-52
2021/09/19 00:09:59;;;;;;;;;;;;;;;20.75;56.58;100404.19;5157617;27;815;-48
2021/09/19 00:12:24;;;;;;;;;;;;;;;20.94;56.92;100404.06;5157329;27;755;-59
2021/09/19 00:14:50;;;;;;;;;;;;;;;21.06;57.15;100401.56;5157386;27;795;-58
2021/09/19 00:17:17;;;;;;;;;;;;;;;20.96;58.08;100402.63;5157173;27;1055;-46
2021/09/19 00:19:42;;;;;;;;;;;;;;;21.29;57.36;100409.84;5157213;27;850;-49
2021/09/19 00:22:08;;;;;;;;;;;;;;;21.13;58.18;100413.00;5156255;27;1975;-48
2021/09/19 00:24:33;;;;;;;;;;;;;;;21.07;56.56;100403.19;5157488;27;740;-47
2021/09/19 00:27:02;;;;;;;;;;;;;;;20.08;55.14;100405.59;5156958;27;910;-58
2021/09/19 00:29:28;;;;;;;;;;;;;;;19.77;51.71;100401.44;5138854;27;1144;-58
2021/09/19 00:31:53;;;;;;;;;;;;;;;19.13;49.50;100410.25;5157077;27;763;-58
2021/09/19 00:34:19;;;;;;;;;;;;;;;19.00;47.47;100405.50;5157285;27;874;-55
2021/09/19 00:36:44;;;;;;;;;;;;;;;18.55;47.40;100396.75;5156034;27;1016;-57
2021/09/19 00:39:09;;;;;;;;;;;;;;;19.10;49.30;100399.81;5156667;27;743;-50
2021/09/19 00:41:35;;;;;;;;;;;;;;;19.46;52.28;100406.69;5156806;27;1901;-49
2021/09/19 00:44:04;;;;;;;;;;;;;;;19.78;54.40;100410.53;5157164;27;751;-54
2021/09/19 00:46:30;;;;;;;;;;;;;;;20.12;55.63;100415.72;5156940;27;739;-58
2021/09/19 00:48:55;;;;;;;;;;;;;;;20.23;56.62;100419.09;5157013;27;823;-59
2021/09/19 00:51:20;;;;;;;;;;;;;;;20.58;56.65;100425.00;5156275;27;1008;-52
2021/09/19 00:53:46;;;;;;;;;;;;;;;20.76;57.21;100422.41;5156773;27;762;-58
2021/09/19 00:56:11;;;;;;;;;;;;;;;20.93;57.36;100424.53;5138488;27;1524;-59
2021/09/19 00:58:37;;;;;;;;;;;;;;;20.97;57.71;100426.38;5138374;27;771;-49
2021/09/19 01:01:03;;;;;;;;;;;;;;;21.34;57.23;100426.31;5156794;27;778;-49
2021/09/19 01:03:28;;;;;;;;;;;;;;;21.36;57.42;100426.81;5156895;27;763;-47
2021/09/19 01:05:54;;;;;;;;;;;;;;;21.65;56.97;100431.91;5156509;27;1043;-55
2021/09/19 01:08:19;;;;;;;;;;;;;;;;;;5138545;27;1166;-59
2021/09/19 01:10:45;;;;;;;;;;;;;;;21.09;56.65;100431.34;5156842;27;795;-50
2021/09/19 01:13:10;;;;;;;;;;;;;;;20.57;54.54;100433.59;5156688;27;773;-59
2021/09/19 01:15:36;;;;;;;;;;;;;;;19.94;51.69;100435.94;5138267;27;1022;-52
2021/09/19 01:18:03;;;;;;;;;;;;;;;19.43;49.14;100430.19;5156849;27;829;-56
2021/09/19 01:20:28;;;;;;;;;;;;;;;19.27;46.68;100417.75;5157311;27;747;-53
2021/09/19 01:23:05;;;;;;;;;;;;;;;19.01;45.73;100406.31;5137614;27;2032;-54
2021/09/19 01:25:30;;;;;;;;;;;;;;;18.85;47.56;100422.25;5138377;27;867;-53
2021/09/19 01:27:56;;;;;;;;;;;;;;;19.35;50.97;100427.28;5156863;27;831;-47
2021/09/19 01:30:21;;;;;;;;;;;;;;;19.70;53.11;100428.63;5156246;27;862;-55
2021/09/19 01:32:46;;;;;;;;;;;;;;;19.67;55.64;100413.50;5156471;27;766;-51
2021/09/19 01:35:12;;;;;;;;;;;;;;;19.94;56.74;100416.63;5157067;27;858;-48
2021/09/19 01:37:37;;;;;;;;;;;;;;;20.32;56.98;100421.94;5137219;27;981;-50
2021/09/19 01:40:03;;;;;;;;;;;;;;;20.40;57.63;100421.22;5156937;27;834;-59
2021/09/19 01:42:29;;;;;;;;;;;;;;;20.62;57.92;100406.69;5156456;27;1905;-50
2021/09/19 01:44:54;;;;;;;;;;;;;;;20.71;58.43;100415.06;5156452;27;790;-58
2021/09/19 01:47:20;;;;;;;;;;;;;;;21.24;57.07;100421.03;5156464;27;854;-46
2021/09/19 01:49:46;;;;;;;;;;;;;;;20.88;57.70;100421.91;5157157;27;823;-56
2021/09/19 01:52:11;;;;;;;;;;;;;;;20.54;56.41;100412.94;5148892;27;973;-52
2021/09/19 01:54:37;;;;;;;;;;;;;;;19.78;55.50;100411.38;5139223;27;744;-47
2021/09/19 01:57:02;;;;;;;;;;;;;;;19.64;52.80;100403.06;5138756;27;798;-57
2021/09/19 01:59:27;;;;;;;;;;;;;;;19.26;51.24;100405.91;5139198;27;759;-56
2021/09/19 02:01:53;;;;;;;;;;;;;;;19.15;49.33;100408.03;5139029;27;1913;-57
2021/09/19 02:04:18;;;;;;;;;;;;;;;19.23;48.78;100408.47;5138854;27;919;-52
2021/09/19 02:06:44;;;;;;;;;;;;;;;19.31;50.59;100402.25;5138388;27;969;-59
2021/09/19 02:09:09;;;;;;;;;;;;;;;19.33;52.98;100405.53;5139231;27;785;-56
2021/09/19 02:11:35;;;;;;;;;;;;;;;19.59;54.70;100403.16;5139053;27;823;-46
2021/09/19 02:14:00;;;;;;;;;;;;;;;19.70;55.93;100422.25;5138858;27;779;-55
2021/09/19 02:16:26;;;;;;;;;;;;;;;20.04;56.38;100410.91;5138195;27;1169;-57
2021/09/19 02:18:51;;;;;;;;;;;;;;;20.18;56.66;100422.75;5139123;27;862;-58
2021/09/19 02:21:17;;;;;;;;;;;;;;;20.26;57.29;100412.13;5144380;27;1909;-59
2021/09/19 02:23:42;;;;;;;;;;;;;;;20.43;57.06;100414.28;5159884;27;719;-58
2021/09/19 02:26:08;;;;;;;;;;;;;;;20.55;57.34;100428.34;5159254;27;842;-50
2021/09/19 02:28:33;;;;;;;;;;;;;;;20.79;56.87;100421.78;5159556;27;731;-51
2021/09/19 02:30:59;;;;;;;;;;;;;;;20.76;57.08;100428.78;5159339;27;781;-59
2021/09/19 02:33:24;;;;;;;;;;;;;;;20.98;56.67;100427.97;5159524;27;885;-52
2021/09/19 02:35:50;;;;;;;;;;;;;;;21.20;56.40;100429.16;5158725;27;845;-59
2021/09/19 02:38:15;;;;;;;;;;;;;;;21.15;56.66;100423.72;5158760;27;997;-47
2021/09/19 02:40:41;;;;;;;;;;;;;;;21.33;56.09;100427.44;5159303;27;849;-50
2021/09/19 02:43:06;;;;;;;;;;;;;;;21.13;56.28;100429.59;5158968;27;1909;-49
2021/09/19 02:45:31;;;;;;;;;;;;;;;20.70;56.18;100429.19;5158908;27;827;-56
2021/09/19 02:47:57;;;;;;;;;;;;;;;20.21;54.55;100420.53;5158876;27;819;-48
2021/09/19 02:50:23;;;;;;;;;;;;;;;19.97;52.68;100421.53;5158860;27;885;-54
2021/09/19 02:52:48;;;;;;;;;;;;;;;19.60;51.25;100429.63;5142416;27;956;-54
2021/09/19 02:55:14;;;;;;;;;;;;;;;19.25;50.01;100431.84;5138490;27;758;-51
2021/09/19 02:57:40;;;;;;;;;;;;;;;19.00;48.68;100435.81;5137821;27;807;-54
2021/09/19 03:00:06;;;;;;;;;;;;;;;18.80;48.25;100429.47;5137844;27;838;-54
2021/09/19 03:02:31;;;;;;;;;;;;;;;19.04;51.27;100423.09;5137781;27;1906;-50
2021/09/19 03:04:57;;;;;;;;;;;;;;;19.54;53.58;100417.03;5137800;27;805;-50
2021/09/19 03:07:22;;;;;;;;;;;;;;;19.88;55.18;100423.34;5137116;27;1004;-53
2021/09/19 03:09:48;;;;;;;;;;;;;;;20.18;56.29;100425.50;5138128;27;786;-52
2021/09/19 03:12:13;;;;;;;;;;;;;;;20.32;57.08;100413.66;5137385;27;684;-53
2021/09/19 03:14:39;;;;;;;;;;;;;;;20.57;57.23;100417.81;5137769;27;798;-60
2021/09/19 03:17:04;;;;;;;;;;;;;;;20.73;57.71;100410.03;5137332;27;1172;-60
2021/09/19 03:19:29;;;;;;;;;;;;;;;21.02;57.25;100406.88;5137429;27;806;-49
2021/09/19 03:21:55;;;;;;;;;;;;;;;21.10;57.54;100402.56;5148882;27;2218;-59
2021/09/19 03:24:20;;;;;;;;;;;;;;;21.27;57.42;100401.88;5158408;27;759;-58
2021/09/19 03:26:46;;;;;;;;;;;;;;;21.51;56.99;100407.06;5157203;27;794;-58
2021/09/19 03:29:11;;;;;;;;;;;;;;;21.25;57.71;100403.31;5158318;27;779;-60
2021/09/19 03:31:36;;;;;;;;;;;;;;;20.97;56.89;100411.72;5158523;27;735;-56
2021/09/19 03:34:02;;;;;;;;;;;;;;;20.26;55.02;100414.88;5158020;27;787;-60
2021/09/19 03:36:27;;;;;;;;;;;;;;;20.00;51.36;100420.91;5157605;27;949;-59
2021/09/19 03:38:53;;;;;;;;;;;;;;;19.14;49.72;100414.66;5157526;27;1118;-58
2021/09/19 03:41:18;;;;;;;;;;;;;;;18.86;47.39;100410.09;5158399;27;1978;-59
2021/09/19 03:43:43;;;;;;;;;;;;;;;18.57;46.30;100413.81;5158526;27;795;-58
2021/09/19 03:46:09;;;;;;;;;;;;;;;18.76;47.18;100427.56;5158057;27;838;-64
2021/09/19 03:48:34;;;;;;;;;;;;;;;19.12;50.50;100429.84;5157968;27;863;-61
2021/09/19 03:51:01;;;;;;;;;;;;;;;19.23;53.87;100427.75;5158598;27;1315;-60
2021/09/19 03:53:27;;;;;;;;;;;;;;;19.55;55.48;100437.16;5168620;27;1331;-59
2021/09/19 03:55:52;;;;;;;;;;;;;;;19.88;56.52;100434.38;5172872;27;1404;-57
2021/09/19 03:58:17;;;;;;;;;;;;;;;20.33;56.67;100434.63;5163580;27;1392;-54
2021/09/19 04:00:43;;;;;;;;;;;;;;;20.41;57.49;100446.88;5167310;27;1392;-64
2021/09/19 04:03:08;;;;;;;;;;;;;;;20.56;57.75;100454.06;5175631;27;1972;-63
2021/09/19 04:05:36;;;;;;;;;;;;;;;20.91;57.34;100454.44;5161282;27;1532;-63
2021/09/19 04:08:01;;;;;;;;;;;;;;;21.18;56.99;100448.81;5163658;27;1218;-62
2021/09/19 04:10:27;;;;;;;;;;;;;;;21.15;57.41;100443.09;5165117;27;1353;-65
2021/09/19 04:12:52;;;;;;;;;;;;;;;21.12;57.95;100450.06;5167558;27;1529;-63
2021/09/19 04:15:17;;;;;;;;;;;;;;;21.50;56.82;100455.25;5163605;27;1458;-60
2021/09/19 04:17:43;;;;;;;;;;;;;;;21.61;55.21;100453.03;5167614;27;1539;-51
2021/09/19 04:20:09;;;;;;;;;;;;;;;21.26;53.38;100460.25;5172292;27;1180;-63
2021/09/19 04:22:34;;;;;;;;;;;;;;;20.85;51.67;100462.81;5158982;27;1974;-59
2021/09/19 04:25:00;;;;;;;;;;;;;;;20.47;49.72;100457.53;5167632;27;1215;-58
2021/09/19 04:27:26;;;;;;;;;;;;;;;19.80;49.55;100456.03;5173116;27;1528;-62
2021/09/19 04:29:51;;;;;;;;;;;;;;;19.74;48.21;100460.00;5173515;27;1538;-57
2021/09/19 04:32:18;;;;;;;;;;;;;;;19.20;48.49;100458.69;5174309;27;1203;-61
2021/09/19 04:34:44;;;;;;;;;;;;;;;19.40;47.19;100461.09;5158482;27;1442;-51
2021/09/19 04:37:13;;;;;;;;;;;;;;;19.28;48.02;100455.25;5160120;27;1350;-54
2021/09/19 04:39:39;;;;;;;;;;;;;;;19.58;49.91;100459.41;5162607;27;1512;-61
2021/09/19 04:42:05;;;;;;;;;;;;;;;19.83;51.89;100460.13;5156857;27;1909;-59
2021/09/19 04:44:30;;;;;;;;;;;;;;;20.21;53.52;100461.94;5157632;27;1291;-59
2021/09/19 04:46:55;;;;;;;;;;;;;;;20.29;55.07;100455.69;5169834;27;826;-55
2021/09/19 04:49:21;;;;;;;;;;;;;;;20.78;55.21;100462.44;5162864;27;906;-64
2021/09/19 04:51:46;;;;;;;;;;;;;;;21.12;55.23;100476.91;5156202;27;1141;-59
2021/09/19 04:54:12;;;;;;;;;;;;;;;21.31;55.48;100480.31;5160931;27;1478;-60
2021/09/19 04:56:37;;;;;;;;;;;;;;;21.52;55.48;100472.38;5156437;27;1406;-59
2021/09/19 04:59:03;;;;;;;;;;;;;;;21.67;55.47;100464.81;5157550;27;766;-63
2021/09/19 05:01:28;;;;;;;;;;;;;;;21.86;55.31;100462.63;5166141;27;1917;-62
2021/09/19 05:03:53;;;;;;;;;;;;;;;21.80;55.53;100463.13;5171268;27;1315;-61
2021/09/19 05:06:19;;;;;;;;;;;;;;;21.57;55.42;100471.41;5166953;27;1479;-49
2021/09/19 05:08:44;;;;;;;;;;;;;;;20.98;54.16;100471.41;5166856;27;1327;-60
2021/09/19 05:11:10;;;;;;;;;;;;;;;20.11;51.94;100471.22;5163032;27;1362;-60
2021/09/19 05:13:35;;;;;;;;;;;;;;;19.66;48.97;100471.72;5165325;27;1290;-61
2021/09/19 05:16:01;;;;;;;;;;;;;;;19.03;47.41;100470.19;5164483;27;1465;-59
2021/09/19 05:18:26;;;;;;;;;;;;;;;18.54;46.47;100474.97;5163193;27;1353;-63
2021/09/19 05:20:51;;;;;;;;;;;;;;;18.76;48.21;100478.00;5165424;27;1468;-63
2021/09/19 05:23:17;;;;;;;;;;;;;;;19.42;51.03;100480.94;5156709;27;1914;-59
2021/09/19 05:25:42;;;;;;;;;;;;;;;19.76;53.07;100481.75;5171101;27;1254;-59
2021/09/19 05:28:08;;;;;;;;;;;;;;;20.16;54.33;100480.22;5161837;27;1488;-58
2021/09/19 05:30:33;;;;;;;;;;;;;;;20.49;55.22;100476.56;5160325;27;787;-60
2021/09/19 05:32:59;;;;;;;;;;;;;;;20.93;54.92;100469.59;5161127;27;823;-59
2021/09/19 05:35:24;;;;;;;;;;;;;;;20.96;55.76;100468.94;5173654;27;1259;-63
2021/09/19 05:37:49;;;;;;;;;;;;;;;21.18;55.86;100476.47;5166612;27;1196;-60
2021/09/19 05:40:15;;;;;;;;;;;;;;;21.49;55.49;100474.91;5160449;27;1488;-52
2021/09/19 05:42:40;;;;;;;;;;;;;;;21.47;55.97;100477.19;5175873;27;1976;-56
2021/09/19 05:45:06;;;;;;;;;;;;;;;21.60;55.75;100481.03;5160292;27;1014;-58
2021/09/19 05:47:31;;;;;;;;;;;;;;;21.80;55.86;100486.06;5159131;27;815;-58
2021/09/19 05:49:57;;;;;;;;;;;;;;;21.68;56.12;100488.59;5160238;27;739;-59
2021/09/19 05:52:22;;;;;;;;;;;;;;;21.01;55.15;100485.44;5160048;27;1120;-58
2021/09/19 05:54:48;;;;;;;;;;;;;;;20.46;52.62;100483.50;5169334;27;751;-57
2021/09/19 05:57:13;;;;;;;;;;;;;;;20.01;49.04;100486.03;5159756;27;767;-59
2021/09/19 05:59:39;;;;;;;;;;;;;;;19.12;48.07;100494.03;5161776;27;1548;-58
2021/09/19 06:02:04;;;;;;;;;;;;;;;18.61;46.80;100492.75;5155348;27;1917;-58
2021/09/19 06:04:29;;;;;;;;;;;;;;;18.65;45.35;100498.50;5167757;27;794;-58
2021/09/19 06:06:55;;;;;;;;;;;;;;;18.80;48.46;100494.72;5159353;27;929;-61
2021/09/19 06:09:20;;;;;;;;;;;;;;;19.49;50.94;100500.66;5159525;27;895;-64
2021/09/19 06:11:46;;;;;;;;;;;;;;;19.81;53.28;100501.84;5159515;27;807;-65
2021/09/19 06:14:11;;;;;;;;;;;;;;;20.27;54.03;100496.59;5159061;27;827;-66
2021/09/19 06:16:37;;;;;;;;;;;;;;;20.65;54.42;100510.19;5159145;27;978;-61
2021/09/19 06:19:02;;;;;;;;;;;;;;;20.64;55.78;100500.28;5159581;27;777;-59
2021/09/19 06:21:28;;;;;;;;;;;;;;;20.96;55.82;100502.13;5160091;27;1909;-60
2021/09/19 06:23:53;;;;;;;;;;;;;;;21.30;55.30;100503.56;5161474;27;1506;-59
2021/09/19 06:26:18;;;;;;;;;;;;;;;21.43;55.67;100509.34;5164295;27;1291;-59
2021/09/19 06:28:44;;;;;;;;;;;;;;;21.67;55.38;100509.06;5175350;27;1270;-62
2021/09/19 06:31:09;;;;;;;;;;;;;;;21.54;56.12;100502.47;5163668;27;1400;-62
2021/09/19 06:33:35;;;;;;;;;;;;;;;21.82;55.56;100508.69;5171545;27;1437;-56
2021/09/19 06:36:01;;;;;;;;;;;;;;;22.00;55.40;100512.38;5162360;27;1425;-55
2021/09/19 06:38:26;;;;;;;;;;;;;;;21.65;55.39;100509.41;5162542;27;1027;-61
2021/09/19 06:40:52;;;;;;;;;;;;;;;21.23;52.98;100513.44;5180207;27;786;-60
2021/09/19 06:43:17;;;;;;;;;;;;;;;20.48;50.71;100503.38;5179850;27;1976;-60
2021/09/19 06:45:42;;;;;;;;;;;;;;;20.05;48.31;100511.91;5178960;27;759;-67
2021/09/19 06:48:08;;;;;;;;;;;;;;;19.48;46.71;100510.03;5158798;27;763;-67
2021/09/19 06:50:33;;;;;;;;;;;;;;;19.07;46.37;100524.44;5166555;27;794;-64
2021/09/19 06:53:00;;;;;;;;;;;;;;;19.36;48.04;100511.63;5162978;27;1167;-60
2021/09/19 06:55:26;;;;;;;;;;;;;;;19.61;51.90;100513.16;5161325;27;1355;-53
2021/09/19 06:57:55;;;;;;;;;;;;;;;20.17;53.10;100523.28;5140520;27;1005;-45
2021/09/19 07:00:20;;;;;;;;;;;;;;;20.24;55.02;100527.56;5168256;27;763;-48
2021/09/19 07:02:46;;;;;;;;;;;;;;;20.50;55.79;100516.88;5178782;27;1909;-47
2021/09/19 07:05:11;;;;;;;;;;;;;;;20.76;56.14;100528.25;5158598;27;546;-59
2021/09/19 07:07:36;;;;;;;;;;;;;;;20.81;56.68;100528.13;5158112;27;933;-63
2021/09/19 07:10:02;;;;;;;;;;;;;;;21.15;56.21;100526.88;5158451;27;834;-63
2021/09/19 07:12:27;;;;;;;;;;;;;;;21.15;56.77;100529.63;5158479;27;866;-62
2021/09/19 07:14:53;;;;;;;;;;;;;;;21.53;56.14;100529.34;5160973;27;1350;-60
2021/09/19 07:17:18;;;;;;;;;;;;;;;21.49;56.36;100528.28;5164359;27;1262;-56
2021/09/19 07:19:44;;;;;;;;;;;;;;;21.68;56.33;100530.91;5176046;27;1266;-55
2021/09/19 07:22:09;;;;;;;;;;;;;;;21.67;55.91;100522.91;5165120;27;1974;-58
2021/09/19 07:24:35;;;;;;;;;;;;;;;21.24;55.71;100517.81;5157865;27;676;-65
2021/09/19 07:27:03;;;;;;;;;;;;;;;20.84;52.89;100518.41;5173034;27;1548;-60
2021/09/19 07:29:29;;;;;;;;;;;;;;;19.99;51.15;100521.38;5149757;27;807;-64
2021/09/19 07:31:55;;;;;;;;;;;;;;;19.57;48.65;100518.47;5167135;27;807;-61
2021/09/19 07:34:21;;;;;;;;;;;;;;;19.13;47.71;100520.50;5164915;27;1275;-63
2021/09/19 07:36:46;;;;;;;;;;;;;;;18.93;45.92;100527.09;5165686;27;1524;-50
2021/09/19 07:39:12;;;;;;;;;;;;;;;19.08;46.57;100537.13;5168256;27;808;-60
2021/09/19 07:41:37;;;;;;;;;;;;;;;19.07;50.33;100543.72;5160721;27;1917;-63
2021/09/19 07:44:03;;;;;;;;;;;;;;;19.92;52.22;100534.75;5161271;27;1460;-59
2021/09/19 07:46:29;;;;;;;;;;;;;;;20.21;54.61;100531.75;5157073;27;811;-63
2021/09/19 07:48:54;;;;;;;;;;;;;;;20.64;55.21;100542.53;5175407;27;743;-63
2021/09/19 07:51:20;;;;;;;;;;;;;;;20.90;55.61;100539.31;5162275;27;848;-59
2021/09/19 07:53:45;;;;;;;;;;;;;;;21.07;55.98;100535.06;5156978;27;871;-64
2021/09/19 07:56:11;;;;;;;;;;;;;;;21.13;56.27;100536.59;5157237;27;791;-59
2021/09/19 07:58:36;;;;;;;;;;;;;;;21.26;56.42;100532.16;5138651;27;858;-64
2021/09/19 08:01:02;;;;;;;;;;;;;;;21.51;56.22;100528.78;5158042;27;764;-61
2021/09/19 08:03:27;;;;;;;;;;;;;;;21.59;56.25;100523.66;5139478;27;1968;-60
2021/09/19 08:05:53;;;;;;;;;;;;;;;21.46;56.45;100523.41;5157570;27;746;-62
2021/09/19 08:08:18;;;;;;;;;;;;;;;21.00;55.43;100524.44;5155913;27;953;-62
2021/09/19 08:10:44;;;;;;;;;;;;;;;20.51;53.57;100516.56;5157682;27;827;-64
2021/09/19 08:13:09;;;;;;;;;;;;;;;19.99;50.51;100518.63;5159219;27;1512;-59
2021/09/19 08:15:34;;;;;;;;;;;;;;;19.37;49.08;100514.09;5164678;27;1544;-67
2021/09/19 08:18:00;;;;;;;;;;;;;;;19.17;47.15;100522.66;5158491;27;1262;-55
2021/09/19 08:20:25;;;;;;;;;;;;;;;18.84;46.68;100517.00;5166517;27;1405;-65
2021/09/19 08:22:51;;;;;;;;;;;;;;;19.34;47.93;100525.72;5165933;27;1968;-50
2021/09/19 08:25:17;;;;;;;;;;;;;;;19.55;51.45;100520.72;5159529;27;1120;-54
2021/09/19 08:27:42;;;;;;;;;;;;;;;20.05;53.04;100519.34;5144109;27;1315;-60
2021/09/19 08:30:08;;;;;;;;;;;;;;;20.16;55.09;100520.81;5163813;27;1339;-59
2021/09/19 08:32:34;;;;;;;;;;;;;;;20.73;55.00;100519.75;5169446;27;1452;-52
2021/09/19 08:34:59;;;;;;;;;;;;;;;20.89;55.54;100523.84;5169423;27;1337;-62
2021/09/19 08:37:25;;;;;;;;;;;;;;;20.90;56.05;100521.88;5164656;27;1128;-61
2021/09/19 08:39:50;;;;;;;;;;;;;;;21.10;56.23;100524.22;5157676;27;807;-64
2021/09/19 08:42:16;;;;;;;;;;;;;;;21.07;56.93;100519.31;5177244;27;1910;-59
2021/09/19 08:44:41;;;;;;;;;;;;;;;21.38;56.20;100521.38;5160326;27;1254;-59
2021/09/19 08:47:07;;;;;;;;;;;;;;;21.77;55.31;100521.84;5156298;27;1228;-50
2021/09/19 08:49:32;;;;;;;;;;;;;;;21.73;55.41;100513.38;5151727;27;1212;-60
2021/09/19 08:51:58;;;;;;;;;;;;;;;21.20;55.52;100512.91;5158044;27;1460;-65
2021/09/19 08:54:23;;;;;;;;;;;;;;;20.44;53.88;100512.56;5166180;27;1457;-69
2021/09/19 08:56:49;;;;;;;;;;;;;;;20.40;50.47;100503.25;5174402;27;1452;-62
2021/09/19 08:59:14;;;;;;;;;;;;;;;19.68;48.70;100505.31;5163187;27;1153;-59
2021/09/19 09:01:59;;;;;;;;;;;;;;;19.18;47.87;100505.00;5165620;27;1964;-60
2021/09/19 09:04:25;;;;;;;;;;;;;;;18.89;46.59;100497.69;5161443;27;839;-59
2021/09/19 09:06:51;;;;;;;;;;;;;;;19.13;49.21;100503.94;5142288;27;1025;-53
2021/09/19 09:09:17;;;;;;;;;;;;;;;19.79;51.71;100494.94;5160673;27;826;-62
2021/09/19 09:11:43;;;;;;;;;;;;;;;20.16;53.62;100488.50;5160955;27;755;-59
2021/09/19 09:14:09;;;;;;;;;;;;;;;20.58;54.53;100495.97;5161320;27;774;-59
2021/09/19 09:16:34;;;;;;;;;;;;;;;20.64;55.84;100483.72;5141807;27;1267;-59
2021/09/19 09:18:59;;;;;;;;;;;;;;;21.12;55.32;100482.44;5160284;27;799;-60
2021/09/19 09:21:26;;;;;;;;;;;;;;;21.11;55.95;100481.63;5160485;27;1980;-59
2021/09/19 09:23:58;;;;;;;;;;;;;;;21.33;56.09;100480.00;5160870;27;790;-61
2021/09/19 09:26:32;;;;;;;;;;;;;;;21.47;56.07;100483.50;5160756;27;862;-61
2021/09/19 09:29:04;;;;;;;;;;;;;;;21.76;55.66;100490.59;5160432;27;815;-62
2021/09/19 09:31:33;;;;;;;;;;;;;;;21.68;55.84;100489.38;5160766;27;768;-62
2021/09/19 09:34:02;;;;;;;;;;;;;;;21.64;54.92;100487.56;5160781;27;786;-62
2021/09/19 09:36:35;;;;;;;;;;;;;;;20.83;53.33;100481.69;5159586;27;945;-62
2021/09/19 09:39:00;;;;;;;;;;;;;;;20.17;51.09;100470.84;5160044;27;1098;-59
2021/09/19 09:41:39;;;;;;;;;;;;;;;19.68;49.63;100486.00;5160558;27;1970;-61
2021/09/19 09:44:22;;;;;;;;;;;;;;;19.37;47.30;100483.75;5142032;27;779;-61
2021/09/19 09:46:48;;;;;;;;;;;;;;;18.76;47.01;100489.00;5160271;27;743;-61
2021/09/19 09:49:14;;;;;;;;;;;;;;;18.80;48.41;100490.06;5159696;27;877;-60
2021/09/19 09:51:39;;;;;;;;;;;;;;;19.58;52.13;100475.97;5153505;27;1000;-61
2021/09/19 09:54:04;;;;;;;;;;;;;;;20.23;53.91;100477.06;5139560;27;758;-63
2021/09/19 09:56:30;;;;;;;;;;;;;;;20.74;55.34;100483.53;5139347;27;775;-62
2021/09/19 09:58:56;;;;;;;;;;;;;;;21.27;55.63;100493.13;5120892;27;795;-62
2021/09/19 10:01:21;;;;;;;;;;;;;;;21.32;56.42;100494.94;5139330;27;858;-64
2021/09/19 10:03:47;;;;;;;;;;;;;;;21.69;55.66;100491.03;5120581;27;2000;-61
2021/09/19 10:06:13;;;;;;;;;;;;;;;21.61;56.34;100491.78;5138525;27;993;-61
2021/09/19 10:08:38;;;;;;;;;;;;;;;21.38;56.40;100474.34;5139094;27;856;-61
2021/09/19 10:11:06;;;;;;;;;;;;;;;21.12;54.87;100468.59;5119444;27;1334;-60
2021/09/19 10:13:32;;;;;;;;;;;;;;;20.33;52.73;100470.53;5139138;27;869;-63
2021/09/19 10:15:57;;;;;;;;;;;;;;;20.05;49.84;100467.75;5138745;27;1043;-61
2021/09/19 10:18:22;;;;;;;;;;;;;;;19.38;48.53;100463.34;5139453;27;736;-60
2021/09/19 10:20:50;;;;;;;;;;;;;;;18.69;47.62;100461.00;5122346;27;1545;-60
2021/09/19 10:23:19;;;;;;;;;;;;;;;18.56;46.45;100472.72;5159119;27;1905;-59
2021/09/19 10:25:58;;;;;;;;;;;;;;;18.98;48.49;100468.34;5159966;27;735;-62
2021/09/19 10:28:24;;;;;;;;;;;;;;;19.76;52.17;100466.00;5140067;27;803;-60
2021/09/19 10:31:08;;;;;;;;;;;;;;;20.27;54.50;100463.47;5159507;27;822;-60
2021/09/19 10:33:43;;;;;;;;;;;;;;;20.59;56.50;100458.94;5159753;27;766;-61
2021/09/19 10:36:21;;;;;;;;;;;;;;;21.02;56.43;100458.59;5158220;27;894;-62
2021/09/19 10:38:46;;;;;;;;;;;;;;;21.36;56.08;100460.84;5159656;27;1070;-63
2021/09/19 10:41:15;;;;;;;;;;;;;;;21.46;56.37;100454.25;5158770;27;731;-60
2021/09/19 10:43:50;;;;;;;;;;;;;;;21.70;56.08;100453.94;5158961;27;1972;-60
2021/09/19 10:46:34;;;;;;;;;;;;;;;21.73;55.87;100446.13;5159339;27;763;-61
2021/09/19 10:49:13;;;;;;;;;;;;;;;21.08;55.54;100446.28;5159388;27;842;-61
2021/09/19 10:51:57;;;;;;;;;;;;;;;20.67;53.42;100438.88;5151729;27;1008;-60
2021/09/19 10:54:41;;;;;;;;;;;;;;;20.06;51.14;100435.44;5138369;27;764;-61
2021/09/19 10:57:13;;;;;;;;;;;;;;;19.84;48.78;100434.19;5138008;27;1138;-63
2021/09/19 10:59:57;;;;;;;;;;;;;;;19.59;46.96;100438.19;5137822;27;831;-61
2021/09/19 11:02:26;;;;;;;;;;;;;;;19.17;46.15;100438.03;5138119;27;1910;-60
2021/09/19 11:05:01;;;;;;;;;;;;;;;19.31;48.95;100438.09;5138473;27;816;-60
2021/09/19 11:07:26;;;;;;;;;;;;;;;19.95;52.83;100429.28;5137134;27;1012;-62
2021/09/19 11:09:52;;;;;;;;;;;;;;;20.45;54.50;100443.19;5137962;27;863;-62
2021/09/19 11:12:18;;;;;;;;;;;;;;;20.58;56.07;100435.22;5119531;27;759;-60
2021/09/19 11:14:56;;;;;;;;;;;;;;;21.03;55.78;100436.16;5137730;27;811;-63
2021/09/19 11:17:25;;;;;;;;;;;;;;;21.20;55.99;100423.63;5137785;27;771;-61
2021/09/19 11:20:11;;;;;;;;;;;;;;;21.27;56.21;100434.25;5137491;27;815;-63
2021/09/19 11:22:36;;;;;;;;;;;;;;;21.71;55.55;100432.59;5153404;27;1909;-64
2021/09/19 11:25:02;;;;;;;;;;;;;;;21.77;55.46;100425.81;5140459;27;763;-65
2021/09/19 11:27:30;;;;;;;;;;;;;;;21.67;55.78;100424.13;5158092;27;810;-61
2021/09/19 11:29:56;;;;;;;;;;;;;;;21.84;55.10;100426.16;5158555;27;522;-61
2021/09/19 11:32:21;;;;;;;;;;;;;;;21.16;54.99;100420.66;5157701;27;814;-62
2021/09/19 11:34:47;;;;;;;;;;;;;;;21.01;52.58;100412.72;5158422;27;735;-61
2021/09/19 11:37:12;;;;;;;;;;;;;;;20.29;51.37;100406.00;5157165;27;969;-63
2021/09/19 11:39:38;;;;;;;;;;;;;;;19.64;49.58;100405.00;5158180;27;759;-61
2021/09/19 11:42:08;;;;;;;;;;;;;;;19.48;47.82;100410.78;5158123;27;1905;-60
2021/09/19 11:44:34;;;;;;;;;;;;;;;19.03;47.25;100399.41;5157936;27;815;-61
2021/09/19 11:47:01;;;;;;;;;;;;;;;19.44;47.80;100398.72;5157612;27;814;-63
2021/09/19 11:49:27;;;;;;;;;;;;;;;19.51;50.92;100394.75;5158079;27;758;-60
2021/09/19 11:51:52;;;;;;;;;;;;;;;20.01;52.67;100392.19;5149021;27;972;-60
2021/09/19 11:54:18;;;;;;;;;;;;;;;20.41;54.18;100395.25;5137130;27;731;-59
2021/09/19 11:56:44;;;;;;;;;;;;;;;20.71;54.83;100398.50;5136938;27;799;-60
2021/09/19 11:59:13;;;;;;;;;;;;;;;20.94;55.57;100406.81;5136531;27;851;-60
2021/09/19 12:01:39;;;;;;;;;;;;;;;21.23;55.51;100389.00;5137336;27;1966;-61
2021/09/19 12:04:04;;;;;;;;;;;;;;;21.46;55.40;100398.09;5137326;27;775;-63
2021/09/19 12:06:30;;;;;;;;;;;;;;;21.52;55.69;100389.38;5117816;27;1291;-60
2021/09/19 12:08:55;;;;;;;;;;;;;;;21.59;55.15;100386.16;5136694;27;890;-61
2021/09/19 12:11:21;;;;;;;;;;;;;;;21.17;54.18;100385.53;5118194;27;870;-59
2021/09/19 12:13:47;;;;;;;;;;;;;;;20.42;52.46;100388.59;5118040;27;875;-61
2021/09/19 12:16:13;;;;;;;;;;;;;;;20.01;49.93;100383.91;5136427;27;1196;-61
2021/09/19 12:18:39;;;;;;;;;;;;;;;19.77;48.04;100379.38;5136971;27;831;-63
2021/09/19 12:21:07;;;;;;;;;;;;;;;19.66;46.19;100367.72;5140168;27;1537;-61
2021/09/19 12:23:41;;;;;;;;;;;;;;;18.86;46.99;100366.00;5157330;27;1976;-61
2021/09/19 12:26:10;;;;;;;;;;;;;;;19.13;49.08;100368.91;5157072;27;842;-60
2021/09/19 12:28:37;;;;;;;;;;;;;;;19.80;52.91;100375.22;5157037;27;779;-62
2021/09/19 12:31:03;;;;;;;;;;;;;;;20.32;54.38;100373.06;5157431;27;763;-60
2021/09/19 12:33:28;;;;;;;;;;;;;;;20.82;55.03;100375.03;5156875;27;759;-57
2021/09/19 12:35:54;;;;;;;;;;;;;;;21.15;55.20;100365.66;5156752;27;787;-59
2021/09/19 12:38:22;;;;;;;;;;;;;;;21.56;54.96;100364.66;5156276;27;993;-60
2021/09/19 12:40:48;;;;;;;;;;;;;;;21.43;55.61;100360.81;5157458;27;779;-61
2021/09/19 12:43:14;;;;;;;;;;;;;;;21.62;55.46;100359.81;5156997;27;1917;-55
2021/09/19 12:45:46;;;;;;;;;;;;;;;21.56;55.77;100369.38;5157170;27;786;-59
2021/09/19 12:48:11;;;;;;;;;;;;;;;21.32;56.18;100359.44;5157466;27;766;-63